Список аэропортов
Фактическая погода:

26 апреля, 12:00
Температура: +24°C (+24.0*)
Ветер: юго-восточный 5 м/с
Давление: *758 мм
неб. 1500 м
Время (МСК)Темп. СВетерВлажностьДавлениеОблачностьОсадки
09:00+25СЗ, 5 м/с38%1009 гПаоблачно
10:00+26С, 4 м/с35%1010 гПаоблачно
11:00+26В, 4 м/с44%1010 гПаоблачно
12:00+23ЮВ, 5 м/с63%1009 гПаоблачно
13:00+24ЮВ, 3 м/с61%1009 гПаоблачносл. дождь
14:00+26В, 3 м/с45%1008 гПас прояснениями
15:00+27В, 3 м/с34%1008 гПамалооблачно
16:00+28СВ, 6 м/с28%1007 гПаясно
17:00+28СВ, 6 м/с28%1007 гПаясно
18:00+27В, 4 м/с32%1007 гПас прояснениями
19:00+25В, 2 м/с38%1007 гПаоблачно
20:00+24З, 3 м/с43%1007 гПаоблачносл. дождь
21:00+23СЗ, 3 м/с44%1007 гПаоблачно
22:00+24СЗ, 4 м/с35%1007 гПас прояснениями
23:00+24СЗ, 5 м/с29%1007 гПаоблачно
27 апреля
00:00+24СЗ, 7 м/с29%1007 гПас прояснениями
01:00+24СЗ, 7 м/с31%1006 гПаоблачно
02:00+23СЗ, 7 м/с31%1006 гПаоблачно
03:00+23СЗ, 7 м/с29%1006 гПаоблачно
04:00+24СЗ, 7 м/с28%1006 гПаоблачно
05:00+24СЗ, 6 м/с28%1006 гПас прояснениями
06:00+23СЗ, 5 м/с32%1006 гПаоблачносл. дождь
07:00+21СЗ, 2 м/с47%1006 гПаоблачнодождь
08:00+21З, 1 м/с60%1007 гПаоблачнодождь
09:00+23СЗ, 2 м/с53%1007 гПаоблачнодождь
10:00+24С, 2 м/с45%1007 гПамалооблачносл. дождь
11:00+25ЮВ, 1 м/с46%1007 гПас прояснениями
12:00+25Ю, 4 м/с56%1007 гПаоблачно
13:00+24Ю, 4 м/с53%1007 гПаоблачно
14:00+25Ю, 5 м/с47%1007 гПаоблачно
15:00+26ЮЗ, 5 м/с45%1006 гПаоблачно
16:00+26ЮЗ, 5 м/с49%1006 гПаоблачно
17:00+26ЮЗ, 4 м/с48%1006 гПаоблачно
18:00+26ЮЗ, 4 м/с48%1006 гПаоблачно
19:00+26З, 3 м/с49%1007 гПаоблачно
20:00+26СЗ, 4 м/с42%1007 гПаоблачно
21:00+25СЗ, 3 м/с39%1007 гПаоблачно
22:00+24С, 2 м/с44%1008 гПаоблачно
23:00+23СЗ, 1 м/с48%1007 гПаоблачно
28 апреля
00:00+23З, 3 м/с46%1007 гПаоблачно
01:00+23ЮЗ, 3 м/с52%1006 гПаоблачно
02:00+22ЮЗ, 3 м/с56%1006 гПаоблачно
03:00+22ЮЗ, 2 м/с54%1005 гПас прояснениями
04:00+21ЮЗ, 3 м/с60%1005 гПаоблачно
05:00+20ЮЗ, 2 м/с64%1005 гПаоблачно
06:00+20СЗ, 1 м/с61%1006 гПамалооблачно
07:00+21СВ, 2 м/с58%1006 гПаоблачно
08:00+23С, 2 м/с55%1007 гПаоблачно
09:00+25С, 3 м/с49%1007 гПаоблачно